createdAt,value
2023-04-29T00:01:35.277Z,9.27
2023-04-29T00:04:01.894Z,8.77
2023-04-29T00:06:28.567Z,9.60
2023-04-29T00:08:55.022Z,11.03
2023-04-29T00:11:21.406Z,11.77
2023-04-29T00:13:47.820Z,9.30
2023-04-29T00:16:14.180Z,8.27
2023-04-29T00:18:40.613Z,9.07
2023-04-29T00:21:07.030Z,9.47
2023-04-29T00:23:33.904Z,10.87
2023-04-29T00:26:00.272Z,8.73
2023-04-29T00:28:26.739Z,9.10
2023-04-29T00:30:53.391Z,9.33
2023-04-29T00:33:20.022Z,8.17
2023-04-29T00:35:47.028Z,11.63
2023-04-29T00:38:13.390Z,8.70
2023-04-29T00:40:40.090Z,8.60
2023-04-29T00:43:06.463Z,8.83
2023-04-29T00:45:33.028Z,9.50
2023-04-29T00:47:59.471Z,9.00
2023-04-29T00:50:25.886Z,10.03
2023-04-29T00:52:52.792Z,8.77
2023-04-29T00:55:19.367Z,11.30
2023-04-29T00:57:48.379Z,12.60
2023-04-29T01:00:16.198Z,9.83
2023-04-29T01:02:43.866Z,10.00
2023-04-29T01:05:10.517Z,10.03
2023-04-29T01:07:52.718Z,13.77
2023-04-29T01:10:54.477Z,14.57
2023-04-29T01:13:44.472Z,11.63
2023-04-29T01:16:37.350Z,11.33
2023-04-29T01:19:16.877Z,13.07
2023-04-29T01:21:50.782Z,13.27
2023-04-29T01:24:17.527Z,12.67
2023-04-29T01:26:57.605Z,13.73
2023-04-29T01:29:43.957Z,11.87
2023-04-29T01:32:17.828Z,13.37
2023-04-29T01:35:08.692Z,14.40
2023-04-29T01:37:56.354Z,15.30
2023-04-29T01:40:26.913Z,14.80
2023-04-29T01:42:57.739Z,15.93
2023-04-29T01:45:26.677Z,16.17
2023-04-29T01:47:56.301Z,14.90
2023-04-29T01:50:22.774Z,13.67
2023-04-29T01:52:49.291Z,14.93
2023-04-29T01:55:15.698Z,14.90
2023-04-29T01:57:42.093Z,14.47
2023-04-29T02:00:09.059Z,15.60
2023-04-29T02:02:35.510Z,14.83
2023-04-29T02:05:02.290Z,16.00
2023-04-29T02:07:28.690Z,15.53
2023-04-29T02:09:55.267Z,15.87
2023-04-29T02:12:21.627Z,16.67
2023-04-29T02:14:47.993Z,16.03
2023-04-29T02:17:14.543Z,14.87
2023-04-29T02:19:40.904Z,15.90
2023-04-29T02:22:07.341Z,17.10
2023-04-29T02:24:33.751Z,16.73
2023-04-29T02:27:00.153Z,17.03
2023-04-29T02:29:27.176Z,17.27
2023-04-29T02:31:53.622Z,19.93
2023-04-29T02:34:20.047Z,17.43
2023-04-29T02:36:46.427Z,15.77
2023-04-29T02:39:12.884Z,18.43
2023-04-29T02:41:39.259Z,20.30
2023-04-29T02:44:06.017Z,18.13
2023-04-29T02:46:33.569Z,18.33
2023-04-29T02:49:00.731Z,20.00
2023-04-29T02:51:27.888Z,19.60
2023-04-29T02:53:54.299Z,19.23
2023-04-29T02:56:21.458Z,18.97
2023-04-29T02:58:47.828Z,19.37
2023-04-29T03:01:14.304Z,19.50
2023-04-29T03:03:40.847Z,20.07
2023-04-29T03:06:07.309Z,20.87
2023-04-29T03:08:34.004Z,23.03
2023-04-29T03:11:00.384Z,20.80
2023-04-29T03:13:26.818Z,20.43
2023-04-29T03:15:53.185Z,22.30
2023-04-29T03:18:19.560Z,22.17
2023-04-29T03:20:45.930Z,22.83
2023-04-29T03:23:12.401Z,23.73
2023-04-29T03:25:38.786Z,23.50
2023-04-29T03:28:05.181Z,22.30
2023-04-29T03:30:31.544Z,23.23
2023-04-29T03:32:57.949Z,26.90
2023-04-29T03:35:24.696Z,23.90
2023-04-29T03:37:51.101Z,26.10
2023-04-29T03:40:17.491Z,25.70
2023-04-29T03:42:43.923Z,26.93
2023-04-29T03:45:13.061Z,25.90
2023-04-29T03:47:39.510Z,26.13
2023-04-29T03:50:07.074Z,27.60
2023-04-29T03:52:36.424Z,26.10
2023-04-29T03:55:03.224Z,28.90
2023-04-29T03:57:29.622Z,28.23
2023-04-29T03:59:55.987Z,30.40
2023-04-29T04:02:22.452Z,29.40
2023-04-29T04:04:49.176Z,27.87
2023-04-29T04:07:15.672Z,33.20
2023-04-29T04:09:42.074Z,31.67
2023-04-29T04:12:08.459Z,33.43
2023-04-29T04:14:34.829Z,32.37
2023-04-29T04:17:01.478Z,30.57
2023-04-29T04:19:29.150Z,34.23
2023-04-29T04:21:55.814Z,32.17
2023-04-29T04:24:22.997Z,33.83
2023-04-29T04:26:49.430Z,32.17
2023-04-29T04:29:15.958Z,32.83
2023-04-29T04:31:43.406Z,33.43
2023-04-29T04:34:11.269Z,33.40
2023-04-29T04:36:37.805Z,34.93
2023-04-29T04:39:04.229Z,34.60
2023-04-29T04:41:33.640Z,35.73
2023-04-29T04:44:00.023Z,37.10
2023-04-29T04:46:26.395Z,31.43
2023-04-29T04:48:52.759Z,33.93
2023-04-29T04:51:19.140Z,33.77
2023-04-29T04:53:45.679Z,35.60
2023-04-29T04:56:12.059Z,39.20
2023-04-29T04:58:38.437Z,44.60
2023-04-29T05:01:04.930Z,48.20
2023-04-29T05:03:31.462Z,45.47
2023-04-29T05:05:59.420Z,44.57
2023-04-29T05:08:26.470Z,44.10
2023-04-29T05:10:54.313Z,46.73
2023-04-29T05:13:21.027Z,51.37
2023-04-29T05:15:47.643Z,53.53
2023-04-29T05:18:14.021Z,51.03
2023-04-29T05:20:40.531Z,51.77
2023-04-29T05:23:07.077Z,48.67
2023-04-29T05:25:33.477Z,44.77
2023-04-29T05:27:59.856Z,48.47
2023-04-29T05:30:27.023Z,47.17
2023-04-29T05:32:53.525Z,50.67
2023-04-29T05:35:20.006Z,45.87
2023-04-29T05:37:46.574Z,45.83
2023-04-29T05:40:13.086Z,46.73
2023-04-29T05:42:39.480Z,52.67
2023-04-29T05:45:06.371Z,45.13
2023-04-29T05:47:33.900Z,52.40
2023-04-29T05:50:00.762Z,50.27
2023-04-29T05:52:27.162Z,39.97
2023-04-29T05:54:53.555Z,45.93
2023-04-29T05:57:19.954Z,37.50
2023-04-29T05:59:46.505Z,39.37
2023-04-29T06:02:12.999Z,39.40
2023-04-29T06:04:41.410Z,42.00
2023-04-29T06:07:09.251Z,43.60
2023-04-29T06:09:36.356Z,48.93
2023-04-29T06:12:03.431Z,41.97
2023-04-29T06:14:29.800Z,41.43
2023-04-29T06:16:56.408Z,44.00
2023-04-29T06:19:22.872Z,42.40
2023-04-29T06:21:49.232Z,47.53
2023-04-29T06:24:15.665Z,43.40
2023-04-29T06:26:42.063Z,41.30
2023-04-29T06:29:08.451Z,43.33
2023-04-29T06:31:35.057Z,39.23
2023-04-29T06:34:01.517Z,39.13
2023-04-29T06:36:28.126Z,39.27
2023-04-29T06:38:54.948Z,43.07
2023-04-29T06:41:21.540Z,37.17
2023-04-29T06:43:48.924Z,33.77
2023-04-29T06:46:15.606Z,39.63
2023-04-29T06:48:42.038Z,38.47
2023-04-29T06:51:08.437Z,31.80
2023-04-29T06:53:34.783Z,32.20
2023-04-29T06:56:01.140Z,31.93
2023-04-29T06:58:27.501Z,31.73
2023-04-29T07:00:53.922Z,32.10
2023-04-29T07:03:20.468Z,36.93
2023-04-29T07:05:46.947Z,38.53
2023-04-29T07:08:13.938Z,41.57
2023-04-29T07:10:41.660Z,43.50
2023-04-29T07:13:08.101Z,41.27
2023-04-29T07:15:35.818Z,41.53
2023-04-29T07:18:05.075Z,41.27
2023-04-29T07:20:31.528Z,39.77
2023-04-29T07:22:58.490Z,44.67
2023-04-29T07:25:26.702Z,39.27
2023-04-29T07:27:53.049Z,33.70
2023-04-29T07:30:19.588Z,34.90
2023-04-29T07:32:46.120Z,32.07
2023-04-29T07:35:12.630Z,36.23
2023-04-29T07:37:39.017Z,35.80
2023-04-29T07:40:06.040Z,36.57
2023-04-29T07:42:32.550Z,35.57
2023-04-29T07:44:58.935Z,36.47
2023-04-29T07:47:25.386Z,40.27
2023-04-29T07:49:52.704Z,28.57
2023-04-29T07:52:19.085Z,34.17
2023-04-29T07:54:45.519Z,36.33
2023-04-29T07:57:11.872Z,32.27
2023-04-29T07:59:39.420Z,31.73
2023-04-29T08:02:06.341Z,28.87
2023-04-29T08:04:33.304Z,26.50
2023-04-29T08:06:59.807Z,24.20
2023-04-29T08:09:26.194Z,20.83
2023-04-29T08:11:52.557Z,21.43
2023-04-29T08:14:18.913Z,23.50
2023-04-29T08:16:45.303Z,23.03
2023-04-29T08:19:11.738Z,19.40
2023-04-29T08:21:38.138Z,20.27
2023-04-29T08:24:05.677Z,21.47
2023-04-29T08:26:32.099Z,21.67
2023-04-29T08:28:58.522Z,21.67
2023-04-29T08:31:25.927Z,21.00
2023-04-29T08:33:52.376Z,21.03
2023-04-29T08:36:18.808Z,18.97
2023-04-29T08:38:45.516Z,19.43
2023-04-29T08:41:12.260Z,18.27
2023-04-29T08:43:40.860Z,19.97
2023-04-29T08:46:07.701Z,17.27
2023-04-29T08:48:36.507Z,19.23
2023-04-29T08:51:04.323Z,18.97
2023-04-29T08:53:30.979Z,19.30
2023-04-29T08:56:00.814Z,19.67
2023-04-29T08:58:29.672Z,20.47
2023-04-29T09:00:57.010Z,20.20
2023-04-29T09:03:29.175Z,21.50
2023-04-29T09:05:57.834Z,20.97
2023-04-29T09:08:24.768Z,21.40
2023-04-29T09:10:53.104Z,23.67
2023-04-29T09:13:32.871Z,20.93
2023-04-29T09:15:59.395Z,24.50
2023-04-29T09:18:45.584Z,24.20
2023-04-29T09:21:22.336Z,25.40
2023-04-29T09:23:51.834Z,26.40
2023-04-29T09:26:18.338Z,31.33
2023-04-29T09:28:45.177Z,30.53
2023-04-29T09:31:12.474Z,33.70
2023-04-29T09:33:55.977Z,35.13
2023-04-29T09:36:38.330Z,32.47
2023-04-29T09:39:10.432Z,32.97
2023-04-29T09:41:38.631Z,34.03
2023-04-29T09:44:05.941Z,34.23
2023-04-29T09:46:33.951Z,39.50
2023-04-29T09:49:06.573Z,38.00
2023-04-29T09:51:33.020Z,42.70
2023-04-29T09:54:20.887Z,46.83
2023-04-29T09:56:51.762Z,55.30
2023-04-29T09:59:22.717Z,50.93
2023-04-29T10:01:50.830Z,57.97
2023-04-29T10:04:19.258Z,57.47
2023-04-29T10:06:48.346Z,58.00
2023-04-29T10:09:16.559Z,56.20
2023-04-29T10:11:44.754Z,60.63
2023-04-29T10:14:14.857Z,59.37
2023-04-29T10:16:46.769Z,55.27
2023-04-29T10:19:18.821Z,56.63
2023-04-29T10:21:47.162Z,57.50
2023-04-29T10:24:17.277Z,54.37
2023-04-29T10:26:44.329Z,53.60
2023-04-29T10:29:12.005Z,51.80
2023-04-29T10:31:39.823Z,49.07
2023-04-29T10:34:06.214Z,46.67
2023-04-29T10:36:33.807Z,43.33
2023-04-29T10:39:03.529Z,46.10
2023-04-29T10:41:50.937Z,43.40
2023-04-29T10:44:17.357Z,37.80
2023-04-29T10:46:43.821Z,38.43
2023-04-29T10:49:11.361Z,40.87
2023-04-29T10:51:45.131Z,41.73
2023-04-29T10:54:16.553Z,39.00
2023-04-29T10:56:50.431Z,36.17
2023-04-29T10:59:21.122Z,34.13
2023-04-29T11:01:53.578Z,34.03
2023-04-29T11:04:21.989Z,30.97
2023-04-29T11:06:53.433Z,31.87
2023-04-29T11:09:24.444Z,31.20
2023-04-29T11:12:03.968Z,31.50
2023-04-29T11:15:03.014Z,28.63
2023-04-29T11:17:36.568Z,29.17
2023-04-29T11:20:03.103Z,27.20
2023-04-29T11:22:33.910Z,27.90
2023-04-29T11:25:02.840Z,26.40
2023-04-29T11:27:37.349Z,26.37
2023-04-29T11:30:06.498Z,26.23
2023-04-29T11:32:39.001Z,25.30
2023-04-29T11:35:16.686Z,23.97
2023-04-29T11:37:45.602Z,24.43
2023-04-29T11:40:13.345Z,25.60
2023-04-29T11:42:48.076Z,22.43
2023-04-29T11:45:17.176Z,23.27
2023-04-29T11:47:48.179Z,20.30
2023-04-29T11:50:20.592Z,21.90
2023-04-29T11:52:48.151Z,22.40
2023-04-29T11:55:14.824Z,19.80
2023-04-29T11:57:41.680Z,20.40
2023-04-29T12:00:13.366Z,21.60
2023-04-29T12:02:44.693Z,23.20
2023-04-29T12:05:13.095Z,20.53
2023-04-29T12:07:40.071Z,21.50
2023-04-29T12:10:10.978Z,20.60
2023-04-29T12:12:40.699Z,21.43
2023-04-29T12:15:08.651Z,22.57
2023-04-29T12:17:35.116Z,20.13
2023-04-29T12:20:02.377Z,20.87
2023-04-29T12:22:32.743Z,19.83
2023-04-29T12:24:59.200Z,18.87
2023-04-29T12:27:26.569Z,20.30
2023-04-29T12:29:53.130Z,19.47
2023-04-29T12:32:22.939Z,19.67
2023-04-29T12:34:51.159Z,19.37
2023-04-29T12:37:17.970Z,21.13
2023-04-29T12:39:44.669Z,18.47
2023-04-29T12:42:17.967Z,15.80
2023-04-29T12:44:48.567Z,15.20
2023-04-29T12:47:16.276Z,16.53
2023-04-29T12:49:47.197Z,14.40
2023-04-29T12:52:14.086Z,13.27
2023-04-29T12:54:42.589Z,15.57
2023-04-29T12:57:10.253Z,13.23
2023-04-29T12:59:37.064Z,12.00
2023-04-29T13:02:03.588Z,13.00
2023-04-29T13:04:30.093Z,11.07
2023-04-29T13:07:00.723Z,10.80
2023-04-29T13:09:27.265Z,9.80
2023-04-29T13:11:53.687Z,10.33
2023-04-29T13:14:20.569Z,9.43
2023-04-29T13:16:47.076Z,8.67
2023-04-29T13:21:44.319Z,7.10
2023-04-29T13:24:10.845Z,7.33
2023-04-29T13:26:39.455Z,6.73
2023-04-29T13:33:04.333Z,7.50
